sensor_id;sensor_type;location;lat;lon;timestamp;P1;durP1;ratioP1;P2;durP2;ratioP2
78670;SDS011;68277;52.724;6.516;2023-04-15T00:01:22;5.13;;;2.47;;
78670;SDS011;68277;52.724;6.516;2023-04-15T00:03:49;10.13;;;2.92;;
78670;SDS011;68277;52.724;6.516;2023-04-15T00:06:21;3.85;;;2.15;;
78670;SDS011;68277;52.724;6.516;2023-04-15T00:08:47;4.38;;;2.67;;
78670;SDS011;68277;52.724;6.516;2023-04-15T00:11:15;3.42;;;1.50;;
78670;SDS011;68277;52.724;6.516;2023-04-15T00:13:41;2.55;;;1.85;;
78670;SDS011;68277;52.724;6.516;2023-04-15T00:16:07;6.18;;;2.38;;
78670;SDS011;68277;52.724;6.516;2023-04-15T00:18:33;3.05;;;2.00;;
78670;SDS011;68277;52.724;6.516;2023-04-15T00:20:59;4.97;;;2.60;;
78670;SDS011;68277;52.724;6.516;2023-04-15T00:23:25;2.97;;;2.35;;
78670;SDS011;68277;52.724;6.516;2023-04-15T00:25:51;5.85;;;2.17;;
78670;SDS011;68277;52.724;6.516;2023-04-15T00:28:16;4.72;;;2.88;;
78670;SDS011;68277;52.724;6.516;2023-04-15T00:30:42;4.63;;;1.92;;
78670;SDS011;68277;52.724;6.516;2023-04-15T00:33:08;5.85;;;3.65;;
78670;SDS011;68277;52.724;6.516;2023-04-15T00:35:34;5.22;;;2.53;;
78670;SDS011;68277;52.724;6.516;2023-04-15T00:38:02;4.90;;;2.40;;
78670;SDS011;68277;52.724;6.516;2023-04-15T00:40:29;4.25;;;2.58;;
78670;SDS011;68277;52.724;6.516;2023-04-15T00:42:54;6.40;;;3.00;;
78670;SDS011;68277;52.724;6.516;2023-04-15T00:45:20;5.03;;;1.77;;
78670;SDS011;68277;52.724;6.516;2023-04-15T00:47:46;4.75;;;1.73;;
78670;SDS011;68277;52.724;6.516;2023-04-15T00:50:12;4.80;;;2.60;;
78670;SDS011;68277;52.724;6.516;2023-04-15T00:52:39;1.90;;;1.38;;
78670;SDS011;68277;52.724;6.516;2023-04-15T00:55:09;4.30;;;2.15;;
78670;SDS011;68277;52.724;6.516;2023-04-15T00:57:35;7.88;;;3.42;;
78670;SDS011;68277;52.724;6.516;2023-04-15T01:00:02;4.18;;;2.42;;
78670;SDS011;68277;52.724;6.516;2023-04-15T01:02:29;5.00;;;1.73;;
78670;SDS011;68277;52.724;6.516;2023-04-15T01:07:22;4.70;;;1.80;;
78670;SDS011;68277;52.724;6.516;2023-04-15T01:09:47;4.18;;;2.25;;
78670;SDS011;68277;52.724;6.516;2023-04-15T01:12:13;3.20;;;2.17;;
78670;SDS011;68277;52.724;6.516;2023-04-15T01:14:41;6.70;;;2.92;;
78670;SDS011;68277;52.724;6.516;2023-04-15T01:17:07;4.07;;;2.55;;
78670;SDS011;68277;52.724;6.516;2023-04-15T01:19:33;3.08;;;1.85;;
78670;SDS011;68277;52.724;6.516;2023-04-15T01:21:58;3.78;;;1.90;;
78670;SDS011;68277;52.724;6.516;2023-04-15T01:24:25;2.20;;;1.70;;
78670;SDS011;68277;52.724;6.516;2023-04-15T01:26:54;5.53;;;2.95;;
78670;SDS011;68277;52.724;6.516;2023-04-15T01:29:19;5.10;;;2.75;;
78670;SDS011;68277;52.724;6.516;2023-04-15T01:31:51;4.82;;;2.75;;
78670;SDS011;68277;52.724;6.516;2023-04-15T01:34:18;7.65;;;3.00;;
78670;SDS011;68277;52.724;6.516;2023-04-15T01:36:43;2.53;;;1.50;;
78670;SDS011;68277;52.724;6.516;2023-04-15T01:39:10;7.05;;;2.58;;
78670;SDS011;68277;52.724;6.516;2023-04-15T01:41:36;4.30;;;2.33;;
78670;SDS011;68277;52.724;6.516;2023-04-15T01:44:02;2.88;;;1.77;;
78670;SDS011;68277;52.724;6.516;2023-04-15T01:46:27;2.78;;;1.83;;
78670;SDS011;68277;52.724;6.516;2023-04-15T01:48:53;3.17;;;1.80;;
78670;SDS011;68277;52.724;6.516;2023-04-15T01:51:18;5.13;;;2.40;;
78670;SDS011;68277;52.724;6.516;2023-04-15T01:53:44;2.42;;;1.65;;
78670;SDS011;68277;52.724;6.516;2023-04-15T01:56:10;3.60;;;2.03;;
78670;SDS011;68277;52.724;6.516;2023-04-15T01:58:36;2.88;;;1.52;;
78670;SDS011;68277;52.724;6.516;2023-04-15T02:01:02;3.45;;;1.63;;
78670;SDS011;68277;52.724;6.516;2023-04-15T02:03:30;5.63;;;2.60;;
78670;SDS011;68277;52.724;6.516;2023-04-15T02:05:55;3.75;;;2.00;;
78670;SDS011;68277;52.724;6.516;2023-04-15T02:08:21;3.85;;;2.40;;
78670;SDS011;68277;52.724;6.516;2023-04-15T02:10:47;3.95;;;2.08;;
78670;SDS011;68277;52.724;6.516;2023-04-15T02:13:12;5.72;;;2.60;;
78670;SDS011;68277;52.724;6.516;2023-04-15T02:15:38;5.35;;;2.40;;
78670;SDS011;68277;52.724;6.516;2023-04-15T02:18:03;13.30;;;3.15;;
78670;SDS011;68277;52.724;6.516;2023-04-15T02:20:29;2.88;;;1.95;;
78670;SDS011;68277;52.724;6.516;2023-04-15T02:22:56;4.60;;;2.45;;
78670;SDS011;68277;52.724;6.516;2023-04-15T02:25:22;3.47;;;2.47;;
78670;SDS011;68277;52.724;6.516;2023-04-15T02:27:47;6.07;;;2.67;;
78670;SDS011;68277;52.724;6.516;2023-04-15T02:30:15;4.63;;;2.53;;
78670;SDS011;68277;52.724;6.516;2023-04-15T02:32:41;6.10;;;3.35;;
78670;SDS011;68277;52.724;6.516;2023-04-15T02:35:09;5.82;;;3.55;;
78670;SDS011;68277;52.724;6.516;2023-04-15T02:37:35;6.40;;;2.92;;
78670;SDS011;68277;52.724;6.516;2023-04-15T02:40:07;4.18;;;2.30;;
78670;SDS011;68277;52.724;6.516;2023-04-15T02:42:38;7.10;;;3.38;;
78670;SDS011;68277;52.724;6.516;2023-04-15T02:45:07;7.10;;;2.30;;
78670;SDS011;68277;52.724;6.516;2023-04-15T02:47:34;4.40;;;2.13;;
78670;SDS011;68277;52.724;6.516;2023-04-15T02:50:01;4.68;;;2.88;;
78670;SDS011;68277;52.724;6.516;2023-04-15T02:52:29;2.88;;;1.65;;
78670;SDS011;68277;52.724;6.516;2023-04-15T02:54:55;5.07;;;2.63;;
78670;SDS011;68277;52.724;6.516;2023-04-15T02:57:25;4.50;;;2.35;;
78670;SDS011;68277;52.724;6.516;2023-04-15T02:59:53;4.50;;;2.20;;
78670;SDS011;68277;52.724;6.516;2023-04-15T03:02:18;4.63;;;1.40;;
78670;SDS011;68277;52.724;6.516;2023-04-15T03:04:44;3.90;;;2.20;;
78670;SDS011;68277;52.724;6.516;2023-04-15T03:07:09;5.35;;;3.00;;
78670;SDS011;68277;52.724;6.516;2023-04-15T03:09:35;7.78;;;2.75;;
78670;SDS011;68277;52.724;6.516;2023-04-15T03:12:01;4.95;;;2.83;;
78670;SDS011;68277;52.724;6.516;2023-04-15T03:14:28;5.80;;;3.45;;
78670;SDS011;68277;52.724;6.516;2023-04-15T03:16:53;4.68;;;2.25;;
78670;SDS011;68277;52.724;6.516;2023-04-15T03:19:19;5.93;;;2.92;;
78670;SDS011;68277;52.724;6.516;2023-04-15T03:21:44;7.82;;;2.50;;
78670;SDS011;68277;52.724;6.516;2023-04-15T03:24:10;5.97;;;3.30;;
78670;SDS011;68277;52.724;6.516;2023-04-15T03:26:35;5.80;;;3.38;;
78670;SDS011;68277;52.724;6.516;2023-04-15T03:29:07;7.85;;;2.58;;
78670;SDS011;68277;52.724;6.516;2023-04-15T03:31:33;9.00;;;3.40;;
78670;SDS011;68277;52.724;6.516;2023-04-15T03:34:01;7.28;;;3.42;;
78670;SDS011;68277;52.724;6.516;2023-04-15T03:36:28;4.25;;;2.38;;
78670;SDS011;68277;52.724;6.516;2023-04-15T03:38:57;6.72;;;2.42;;
78670;SDS011;68277;52.724;6.516;2023-04-15T03:41:22;6.82;;;3.30;;
78670;SDS011;68277;52.724;6.516;2023-04-15T03:43:48;6.85;;;2.90;;
78670;SDS011;68277;52.724;6.516;2023-04-15T03:46:16;7.07;;;3.40;;
78670;SDS011;68277;52.724;6.516;2023-04-15T03:48:42;5.68;;;3.25;;
78670;SDS011;68277;52.724;6.516;2023-04-15T03:51:07;6.28;;;3.20;;
78670;SDS011;68277;52.724;6.516;2023-04-15T03:53:35;4.35;;;1.92;;
78670;SDS011;68277;52.724;6.516;2023-04-15T03:56:01;4.35;;;2.63;;
78670;SDS011;68277;52.724;6.516;2023-04-15T03:58:27;5.22;;;2.85;;
78670;SDS011;68277;52.724;6.516;2023-04-15T04:00:53;6.55;;;2.88;;
78670;SDS011;68277;52.724;6.516;2023-04-15T04:03:19;6.40;;;3.35;;
78670;SDS011;68277;52.724;6.516;2023-04-15T04:05:45;9.52;;;3.80;;
78670;SDS011;68277;52.724;6.516;2023-04-15T04:08:10;8.05;;;4.38;;
78670;SDS011;68277;52.724;6.516;2023-04-15T04:10:38;8.45;;;3.40;;
78670;SDS011;68277;52.724;6.516;2023-04-15T04:13:04;7.63;;;3.45;;
78670;SDS011;68277;52.724;6.516;2023-04-15T04:15:29;6.88;;;3.55;;
78670;SDS011;68277;52.724;6.516;2023-04-15T04:17:55;10.00;;;4.07;;
78670;SDS011;68277;52.724;6.516;2023-04-15T04:20:21;5.43;;;2.70;;
78670;SDS011;68277;52.724;6.516;2023-04-15T04:22:46;7.72;;;4.13;;
78670;SDS011;68277;52.724;6.516;2023-04-15T04:25:12;8.77;;;3.78;;
78670;SDS011;68277;52.724;6.516;2023-04-15T04:27:38;6.95;;;3.65;;
78670;SDS011;68277;52.724;6.516;2023-04-15T04:30:04;9.80;;;4.20;;
78670;SDS011;68277;52.724;6.516;2023-04-15T04:32:32;9.90;;;5.05;;
78670;SDS011;68277;52.724;6.516;2023-04-15T04:34:57;5.32;;;2.28;;
78670;SDS011;68277;52.724;6.516;2023-04-15T04:37:23;4.97;;;2.67;;
78670;SDS011;68277;52.724;6.516;2023-04-15T04:39:49;5.43;;;2.25;;
78670;SDS011;68277;52.724;6.516;2023-04-15T04:42:14;7.30;;;3.58;;
78670;SDS011;68277;52.724;6.516;2023-04-15T04:44:40;8.80;;;3.45;;
78670;SDS011;68277;52.724;6.516;2023-04-15T04:47:06;7.65;;;3.17;;
78670;SDS011;68277;52.724;6.516;2023-04-15T04:49:32;8.13;;;3.53;;
78670;SDS011;68277;52.724;6.516;2023-04-15T04:51:58;5.47;;;2.67;;
78670;SDS011;68277;52.724;6.516;2023-04-15T04:54:24;4.78;;;1.90;;
78670;SDS011;68277;52.724;6.516;2023-04-15T04:56:51;7.85;;;3.85;;
78670;SDS011;68277;52.724;6.516;2023-04-15T04:59:17;9.68;;;4.55;;
78670;SDS011;68277;52.724;6.516;2023-04-15T05:01:42;8.20;;;3.58;;
78670;SDS011;68277;52.724;6.516;2023-04-15T05:04:08;9.40;;;3.75;;
78670;SDS011;68277;52.724;6.516;2023-04-15T05:06:33;10.15;;;4.72;;
78670;SDS011;68277;52.724;6.516;2023-04-15T05:11:26;8.25;;;3.47;;
78670;SDS011;68277;52.724;6.516;2023-04-15T05:13:52;6.60;;;3.17;;
78670;SDS011;68277;52.724;6.516;2023-04-15T05:16:17;7.82;;;2.63;;
78670;SDS011;68277;52.724;6.516;2023-04-15T05:18:44;6.97;;;3.53;;
78670;SDS011;68277;52.724;6.516;2023-04-15T05:21:09;6.07;;;3.22;;
78670;SDS011;68277;52.724;6.516;2023-04-15T05:23:35;9.52;;;4.32;;
78670;SDS011;68277;52.724;6.516;2023-04-15T05:26:00;11.93;;;3.88;;
78670;SDS011;68277;52.724;6.516;2023-04-15T05:28:26;6.97;;;3.30;;
78670;SDS011;68277;52.724;6.516;2023-04-15T05:30:51;6.50;;;3.08;;
78670;SDS011;68277;52.724;6.516;2023-04-15T05:33:17;6.82;;;3.83;;
78670;SDS011;68277;52.724;6.516;2023-04-15T05:35:49;6.75;;;3.58;;
78670;SDS011;68277;52.724;6.516;2023-04-15T05:38:14;5.45;;;2.88;;
78670;SDS011;68277;52.724;6.516;2023-04-15T05:40:40;4.03;;;1.92;;
78670;SDS011;68277;52.724;6.516;2023-04-15T05:43:06;8.65;;;3.90;;
78670;SDS011;68277;52.724;6.516;2023-04-15T05:45:39;7.63;;;3.22;;
78670;SDS011;68277;52.724;6.516;2023-04-15T05:48:04;4.60;;;3.03;;
78670;SDS011;68277;52.724;6.516;2023-04-15T05:50:30;6.88;;;4.57;;
78670;SDS011;68277;52.724;6.516;2023-04-15T05:52:56;11.82;;;4.05;;
78670;SDS011;68277;52.724;6.516;2023-04-15T05:55:21;5.43;;;3.53;;
78670;SDS011;68277;52.724;6.516;2023-04-15T05:57:47;6.20;;;3.95;;
78670;SDS011;68277;52.724;6.516;2023-04-15T06:00:14;7.70;;;3.40;;
78670;SDS011;68277;52.724;6.516;2023-04-15T06:02:39;10.23;;;5.25;;
78670;SDS011;68277;52.724;6.516;2023-04-15T06:05:05;9.07;;;3.22;;
78670;SDS011;68277;52.724;6.516;2023-04-15T06:07:35;8.27;;;4.00;;
78670;SDS011;68277;52.724;6.516;2023-04-15T06:10:05;7.82;;;3.75;;
78670;SDS011;68277;52.724;6.516;2023-04-15T06:12:31;11.98;;;4.97;;
78670;SDS011;68277;52.724;6.516;2023-04-15T06:14:57;6.55;;;3.50;;
78670;SDS011;68277;52.724;6.516;2023-04-15T06:17:23;12.35;;;5.68;;
78670;SDS011;68277;52.724;6.516;2023-04-15T06:19:49;10.95;;;4.63;;
78670;SDS011;68277;52.724;6.516;2023-04-15T06:22:19;13.13;;;4.88;;
78670;SDS011;68277;52.724;6.516;2023-04-15T06:24:46;6.20;;;3.38;;
78670;SDS011;68277;52.724;6.516;2023-04-15T06:27:12;6.55;;;3.08;;
78670;SDS011;68277;52.724;6.516;2023-04-15T06:29:37;9.95;;;3.95;;
78670;SDS011;68277;52.724;6.516;2023-04-15T06:32:03;9.85;;;5.47;;
78670;SDS011;68277;52.724;6.516;2023-04-15T06:34:28;6.45;;;3.45;;
78670;SDS011;68277;52.724;6.516;2023-04-15T06:36:54;6.22;;;3.08;;
78670;SDS011;68277;52.724;6.516;2023-04-15T06:39:19;11.05;;;3.65;;
78670;SDS011;68277;52.724;6.516;2023-04-15T06:41:45;9.50;;;5.18;;
78670;SDS011;68277;52.724;6.516;2023-04-15T06:44:16;6.97;;;3.65;;
78670;SDS011;68277;52.724;6.516;2023-04-15T06:46:42;7.70;;;3.95;;
78670;SDS011;68277;52.724;6.516;2023-04-15T06:49:08;10.75;;;4.95;;
78670;SDS011;68277;52.724;6.516;2023-04-15T06:51:34;9.75;;;4.07;;
78670;SDS011;68277;52.724;6.516;2023-04-15T06:54:00;8.75;;;4.18;;
78670;SDS011;68277;52.724;6.516;2023-04-15T06:56:26;16.42;;;5.22;;
78670;SDS011;68277;52.724;6.516;2023-04-15T06:58:52;13.10;;;4.72;;
78670;SDS011;68277;52.724;6.516;2023-04-15T07:01:17;9.57;;;4.68;;
78670;SDS011;68277;52.724;6.516;2023-04-15T07:03:43;11.32;;;4.97;;
78670;SDS011;68277;52.724;6.516;2023-04-15T07:06:09;7.90;;;3.90;;
78670;SDS011;68277;52.724;6.516;2023-04-15T07:08:34;8.02;;;3.22;;
78670;SDS011;68277;52.724;6.516;2023-04-15T07:11:00;11.13;;;4.82;;
78670;SDS011;68277;52.724;6.516;2023-04-15T07:13:29;8.80;;;4.20;;
78670;SDS011;68277;52.724;6.516;2023-04-15T07:15:55;9.98;;;5.13;;
78670;SDS011;68277;52.724;6.516;2023-04-15T07:18:21;8.40;;;4.75;;
78670;SDS011;68277;52.724;6.516;2023-04-15T07:20:46;8.27;;;4.63;;
78670;SDS011;68277;52.724;6.516;2023-04-15T07:23:12;9.45;;;4.00;;
78670;SDS011;68277;52.724;6.516;2023-04-15T07:25:38;7.82;;;4.15;;
78670;SDS011;68277;52.724;6.516;2023-04-15T07:28:03;9.15;;;5.20;;
78670;SDS011;68277;52.724;6.516;2023-04-15T07:30:29;11.07;;;4.95;;
78670;SDS011;68277;52.724;6.516;2023-04-15T07:32:54;13.07;;;4.63;;
78670;SDS011;68277;52.724;6.516;2023-04-15T07:35:20;9.63;;;4.00;;
78670;SDS011;68277;52.724;6.516;2023-04-15T07:37:46;8.98;;;3.67;;
78670;SDS011;68277;52.724;6.516;2023-04-15T07:40:12;8.50;;;4.03;;
78670;SDS011;68277;52.724;6.516;2023-04-15T07:42:38;7.80;;;3.85;;
78670;SDS011;68277;52.724;6.516;2023-04-15T07:45:06;9.93;;;4.80;;
78670;SDS011;68277;52.724;6.516;2023-04-15T07:47:33;9.10;;;4.10;;
78670;SDS011;68277;52.724;6.516;2023-04-15T07:49:58;13.27;;;4.75;;
78670;SDS011;68277;52.724;6.516;2023-04-15T07:52:24;8.85;;;4.72;;
78670;SDS011;68277;52.724;6.516;2023-04-15T07:54:49;8.65;;;3.45;;
78670;SDS011;68277;52.724;6.516;2023-04-15T07:57:15;8.57;;;3.55;;
78670;SDS011;68277;52.724;6.516;2023-04-15T07:59:41;8.68;;;4.30;;
78670;SDS011;68277;52.724;6.516;2023-04-15T08:02:07;8.20;;;4.65;;
78670;SDS011;68277;52.724;6.516;2023-04-15T08:04:32;7.60;;;4.15;;
78670;SDS011;68277;52.724;6.516;2023-04-15T08:06:58;9.32;;;4.10;;
78670;SDS011;68277;52.724;6.516;2023-04-15T08:09:23;8.48;;;3.83;;
78670;SDS011;68277;52.724;6.516;2023-04-15T08:11:51;7.93;;;4.18;;
78670;SDS011;68277;52.724;6.516;2023-04-15T08:14:17;8.95;;;3.85;;
78670;SDS011;68277;52.724;6.516;2023-04-15T08:16:42;7.00;;;3.17;;
78670;SDS011;68277;52.724;6.516;2023-04-15T08:19:09;7.75;;;3.83;;
78670;SDS011;68277;52.724;6.516;2023-04-15T08:21:38;5.95;;;2.92;;
78670;SDS011;68277;52.724;6.516;2023-04-15T08:24:05;10.02;;;4.38;;
78670;SDS011;68277;52.724;6.516;2023-04-15T08:26:31;8.32;;;4.20;;
78670;SDS011;68277;52.724;6.516;2023-04-15T08:28:56;5.63;;;2.53;;
78670;SDS011;68277;52.724;6.516;2023-04-15T08:31:22;7.20;;;3.97;;
78670;SDS011;68277;52.724;6.516;2023-04-15T08:33:48;5.78;;;3.00;;
78670;SDS011;68277;52.724;6.516;2023-04-15T08:36:16;5.47;;;3.25;;
78670;SDS011;68277;52.724;6.516;2023-04-15T08:38:43;5.70;;;2.80;;
78670;SDS011;68277;52.724;6.516;2023-04-15T08:41:17;6.90;;;3.50;;
78670;SDS011;68277;52.724;6.516;2023-04-15T08:43:50;6.07;;;3.20;;
78670;SDS011;68277;52.724;6.516;2023-04-15T08:46:23;4.53;;;2.30;;
78670;SDS011;68277;52.724;6.516;2023-04-15T08:48:49;6.60;;;2.85;;
78670;SDS011;68277;52.724;6.516;2023-04-15T08:51:17;4.90;;;2.67;;
78670;SDS011;68277;52.724;6.516;2023-04-15T08:53:44;5.50;;;2.30;;
78670;SDS011;68277;52.724;6.516;2023-04-15T08:56:12;5.90;;;3.00;;
78670;SDS011;68277;52.724;6.516;2023-04-15T08:58:40;4.43;;;2.42;;
78670;SDS011;68277;52.724;6.516;2023-04-15T09:01:07;4.10;;;2.17;;
78670;SDS011;68277;52.724;6.516;2023-04-15T09:03:33;6.38;;;1.95;;
78670;SDS011;68277;52.724;6.516;2023-04-15T09:05:59;4.05;;;2.28;;
78670;SDS011;68277;52.724;6.516;2023-04-15T09:08:25;5.78;;;2.22;;
78670;SDS011;68277;52.724;6.516;2023-04-15T09:10:50;4.07;;;2.33;;
78670;SDS011;68277;52.724;6.516;2023-04-15T09:13:17;5.50;;;2.00;;
78670;SDS011;68277;52.724;6.516;2023-04-15T09:15:42;3.58;;;1.85;;
78670;SDS011;68277;52.724;6.516;2023-04-15T09:18:10;4.25;;;1.92;;
78670;SDS011;68277;52.724;6.516;2023-04-15T09:20:41;6.55;;;2.83;;
78670;SDS011;68277;52.724;6.516;2023-04-15T09:23:11;5.75;;;2.08;;
78670;SDS011;68277;52.724;6.516;2023-04-15T09:25:38;4.05;;;1.90;;
78670;SDS011;68277;52.724;6.516;2023-04-15T09:28:06;5.20;;;2.30;;
78670;SDS011;68277;52.724;6.516;2023-04-15T09:30:32;6.40;;;2.13;;
78670;SDS011;68277;52.724;6.516;2023-04-15T09:32:58;4.40;;;2.22;;
78670;SDS011;68277;52.724;6.516;2023-04-15T09:35:26;5.60;;;2.88;;
78670;SDS011;68277;52.724;6.516;2023-04-15T09:37:53;3.40;;;1.83;;
78670;SDS011;68277;52.724;6.516;2023-04-15T09:40:39;5.72;;;1.98;;
78670;SDS011;68277;52.724;6.516;2023-04-15T09:43:06;5.25;;;1.95;;
78670;SDS011;68277;52.724;6.516;2023-04-15T09:45:34;5.57;;;1.88;;
78670;SDS011;68277;52.724;6.516;2023-04-15T09:48:16;3.90;;;2.10;;
78670;SDS011;68277;52.724;6.516;2023-04-15T09:50:42;5.60;;;1.95;;
78670;SDS011;68277;52.724;6.516;2023-04-15T09:53:14;3.75;;;1.90;;
78670;SDS011;68277;52.724;6.516;2023-04-15T09:55:49;4.47;;;1.48;;
78670;SDS011;68277;52.724;6.516;2023-04-15T09:58:22;6.97;;;2.42;;
78670;SDS011;68277;52.724;6.516;2023-04-15T10:00:53;3.67;;;1.85;;
78670;SDS011;68277;52.724;6.516;2023-04-15T10:03:21;6.03;;;2.20;;
78670;SDS011;68277;52.724;6.516;2023-04-15T10:05:49;7.32;;;2.08;;
78670;SDS011;68277;52.724;6.516;2023-04-15T10:08:20;4.78;;;1.80;;
78670;SDS011;68277;52.724;6.516;2023-04-15T10:10:49;2.65;;;1.27;;
78670;SDS011;68277;52.724;6.516;2023-04-15T10:13:17;4.40;;;1.60;;
78670;SDS011;68277;52.724;6.516;2023-04-15T10:15:51;4.25;;;1.20;;
78670;SDS011;68277;52.724;6.516;2023-04-15T10:18:22;3.92;;;1.70;;
78670;SDS011;68277;52.724;6.516;2023-04-15T10:20:50;3.95;;;1.55;;
78670;SDS011;68277;52.724;6.516;2023-04-15T10:23:16;3.80;;;1.30;;
78670;SDS011;68277;52.724;6.516;2023-04-15T10:25:43;2.25;;;1.58;;
78670;SDS011;68277;52.724;6.516;2023-04-15T10:28:10;3.20;;;1.30;;
78670;SDS011;68277;52.724;6.516;2023-04-15T10:30:36;7.50;;;1.70;;
78670;SDS011;68277;52.724;6.516;2023-04-15T10:33:03;2.38;;;1.50;;
78670;SDS011;68277;52.724;6.516;2023-04-15T10:35:30;2.05;;;1.05;;
78670;SDS011;68277;52.724;6.516;2023-04-15T10:37:57;2.78;;;1.40;;
78670;SDS011;68277;52.724;6.516;2023-04-15T10:40:24;1.88;;;1.25;;
78670;SDS011;68277;52.724;6.516;2023-04-15T10:42:56;2.70;;;1.27;;
78670;SDS011;68277;52.724;6.516;2023-04-15T10:45:27;2.08;;;1.20;;
78670;SDS011;68277;52.724;6.516;2023-04-15T10:47:57;2.47;;;1.23;;
78670;SDS011;68277;52.724;6.516;2023-04-15T10:50:25;2.90;;;1.35;;
78670;SDS011;68277;52.724;6.516;2023-04-15T10:52:52;1.58;;;0.90;;
78670;SDS011;68277;52.724;6.516;2023-04-15T10:55:20;1.67;;;1.10;;
78670;SDS011;68277;52.724;6.516;2023-04-15T10:57:50;5.60;;;1.25;;
78670;SDS011;68277;52.724;6.516;2023-04-15T11:00:17;2.17;;;1.25;;
78670;SDS011;68277;52.724;6.516;2023-04-15T11:05:17;2.00;;;1.00;;
78670;SDS011;68277;52.724;6.516;2023-04-15T11:12:51;3.60;;;1.00;;
78670;SDS011;68277;52.724;6.516;2023-04-15T11:17:58;2.90;;;1.10;;
78670;SDS011;68277;52.724;6.516;2023-04-15T11:20:48;2.28;;;1.08;;
78670;SDS011;68277;52.724;6.516;2023-04-15T11:23:39;1.77;;;1.00;;
78670;SDS011;68277;52.724;6.516;2023-04-15T11:26:11;2.40;;;1.55;;
78670;SDS011;68277;52.724;6.516;2023-04-15T11:28:46;1.55;;;0.95;;
78670;SDS011;68277;52.724;6.516;2023-04-15T11:31:15;1.52;;;0.90;;
78670;SDS011;68277;52.724;6.516;2023-04-15T11:36:23;1.52;;;1.02;;
78670;SDS011;68277;52.724;6.516;2023-04-15T11:38:51;2.03;;;0.90;;
78670;SDS011;68277;52.724;6.516;2023-04-15T11:41:20;1.60;;;0.90;;
78670;SDS011;68277;52.724;6.516;2023-04-15T11:43:46;7.90;;;1.23;;
78670;SDS011;68277;52.724;6.516;2023-04-15T11:46:11;2.22;;;0.80;;
78670;SDS011;68277;52.724;6.516;2023-04-15T11:48:40;1.90;;;0.98;;
78670;SDS011;68277;52.724;6.516;2023-04-15T11:51:07;1.63;;;0.82;;
78670;SDS011;68277;52.724;6.516;2023-04-15T11:56:15;2.65;;;1.15;;
78670;SDS011;68277;52.724;6.516;2023-04-15T11:58:45;4.82;;;1.40;;
78670;SDS011;68277;52.724;6.516;2023-04-15T12:01:11;2.80;;;1.17;;
78670;SDS011;68277;52.724;6.516;2023-04-15T12:06:20;2.42;;;1.70;;
78670;SDS011;68277;52.724;6.516;2023-04-15T12:11:16;11.15;;;7.20;;
78670;SDS011;68277;52.724;6.516;2023-04-15T12:13:45;2.55;;;1.70;;
78670;SDS011;68277;52.724;6.516;2023-04-15T12:16:11;3.50;;;1.40;;
78670;SDS011;68277;52.724;6.516;2023-04-15T12:18:37;6.65;;;3.75;;
78670;SDS011;68277;52.724;6.516;2023-04-15T12:21:08;4.57;;;2.53;;
78670;SDS011;68277;52.724;6.516;2023-04-15T12:23:37;4.25;;;1.88;;
78670;SDS011;68277;52.724;6.516;2023-04-15T12:26:06;3.33;;;2.28;;
78670;SDS011;68277;52.724;6.516;2023-04-15T12:28:35;1.77;;;1.30;;
78670;SDS011;68277;52.724;6.516;2023-04-15T12:31:08;1.83;;;1.20;;
78670;SDS011;68277;52.724;6.516;2023-04-15T12:33:35;11.32;;;2.60;;
78670;SDS011;68277;52.724;6.516;2023-04-15T12:36:00;1.80;;;1.35;;
78670;SDS011;68277;52.724;6.516;2023-04-15T12:38:26;4.97;;;2.10;;
78670;SDS011;68277;52.724;6.516;2023-04-15T12:40:51;5.60;;;2.22;;
78670;SDS011;68277;52.724;6.516;2023-04-15T12:43:19;2.95;;;1.50;;
78670;SDS011;68277;52.724;6.516;2023-04-15T12:45:44;7.32;;;1.77;;
78670;SDS011;68277;52.724;6.516;2023-04-15T12:50:36;2.67;;;1.40;;
78670;SDS011;68277;52.724;6.516;2023-04-15T12:53:02;8.65;;;1.58;;
78670;SDS011;68277;52.724;6.516;2023-04-15T12:55:28;5.97;;;1.70;;
78670;SDS011;68277;52.724;6.516;2023-04-15T13:00:21;7.13;;;3.35;;
78670;SDS011;68277;52.724;6.516;2023-04-15T13:02:46;6.05;;;2.60;;
78670;SDS011;68277;52.724;6.516;2023-04-15T13:05:12;5.90;;;2.80;;
78670;SDS011;68277;52.724;6.516;2023-04-15T13:07:39;3.42;;;1.92;;
78670;SDS011;68277;52.724;6.516;2023-04-15T13:10:07;3.92;;;1.80;;
78670;SDS011;68277;52.724;6.516;2023-04-15T13:12:33;2.90;;;1.58;;
78670;SDS011;68277;52.724;6.516;2023-04-15T13:15:02;4.85;;;2.60;;
78670;SDS011;68277;52.724;6.516;2023-04-15T13:17:29;3.97;;;2.30;;
78670;SDS011;68277;52.724;6.516;2023-04-15T13:19:55;5.68;;;1.92;;
78670;SDS011;68277;52.724;6.516;2023-04-15T13:22:21;6.28;;;2.42;;
78670;SDS011;68277;52.724;6.516;2023-04-15T13:24:46;8.38;;;2.50;;
78670;SDS011;68277;52.724;6.516;2023-04-15T13:27:12;6.35;;;3.17;;
78670;SDS011;68277;52.724;6.516;2023-04-15T13:29:37;6.68;;;2.78;;
78670;SDS011;68277;52.724;6.516;2023-04-15T13:32:04;6.55;;;1.67;;
78670;SDS011;68277;52.724;6.516;2023-04-15T13:34:30;6.50;;;1.88;;
78670;SDS011;68277;52.724;6.516;2023-04-15T13:36:56;11.80;;;4.07;;
78670;SDS011;68277;52.724;6.516;2023-04-15T13:39:21;9.25;;;3.17;;
78670;SDS011;68277;52.724;6.516;2023-04-15T13:41:47;6.90;;;3.55;;
78670;SDS011;68277;52.724;6.516;2023-04-15T13:44:12;7.50;;;2.80;;
78670;SDS011;68277;52.724;6.516;2023-04-15T13:46:39;6.35;;;1.98;;
78670;SDS011;68277;52.724;6.516;2023-04-15T13:49:06;10.05;;;2.20;;
78670;SDS011;68277;52.724;6.516;2023-04-15T13:51:31;5.97;;;1.70;;
78670;SDS011;68277;52.724;6.516;2023-04-15T13:53:57;6.50;;;1.88;;
78670;SDS011;68277;52.724;6.516;2023-04-15T13:56:23;4.68;;;1.60;;
78670;SDS011;68277;52.724;6.516;2023-04-15T13:58:48;8.45;;;2.10;;
78670;SDS011;68277;52.724;6.516;2023-04-15T14:01:14;13.20;;;4.18;;
78670;SDS011;68277;52.724;6.516;2023-04-15T14:03:39;10.52;;;2.90;;
78670;SDS011;68277;52.724;6.516;2023-04-15T14:06:05;9.20;;;2.10;;
78670;SDS011;68277;52.724;6.516;2023-04-15T14:08:31;8.13;;;2.15;;
78670;SDS011;68277;52.724;6.516;2023-04-15T14:10:57;8.95;;;3.58;;
78670;SDS011;68277;52.724;6.516;2023-04-15T14:13:23;5.57;;;2.20;;
78670;SDS011;68277;52.724;6.516;2023-04-15T14:15:48;2.90;;;1.60;;
78670;SDS011;68277;52.724;6.516;2023-04-15T14:18:15;2.35;;;1.42;;
78670;SDS011;68277;52.724;6.516;2023-04-15T14:20:41;3.33;;;1.25;;
78670;SDS011;68277;52.724;6.516;2023-04-15T14:23:06;5.20;;;1.50;;
78670;SDS011;68277;52.724;6.516;2023-04-15T14:25:32;3.10;;;1.70;;
78670;SDS011;68277;52.724;6.516;2023-04-15T14:27:57;3.20;;;2.28;;
78670;SDS011;68277;52.724;6.516;2023-04-15T14:30:23;6.53;;;3.42;;
78670;SDS011;68277;52.724;6.516;2023-04-15T14:32:48;6.05;;;1.77;;
78670;SDS011;68277;52.724;6.516;2023-04-15T14:35:14;5.28;;;1.70;;
78670;SDS011;68277;52.724;6.516;2023-04-15T14:37:39;7.13;;;1.92;;
78670;SDS011;68277;52.724;6.516;2023-04-15T14:40:05;3.13;;;1.30;;
78670;SDS011;68277;52.724;6.516;2023-04-15T14:42:31;2.78;;;1.25;;
78670;SDS011;68277;52.724;6.516;2023-04-15T14:44:57;4.25;;;2.05;;
78670;SDS011;68277;52.724;6.516;2023-04-15T14:47:22;5.82;;;2.00;;
78670;SDS011;68277;52.724;6.516;2023-04-15T14:49:48;4.88;;;1.48;;
78670;SDS011;68277;52.724;6.516;2023-04-15T14:52:13;1.92;;;1.15;;
78670;SDS011;68277;52.724;6.516;2023-04-15T14:54:39;5.80;;;2.67;;
78670;SDS011;68277;52.724;6.516;2023-04-15T14:57:05;8.27;;;5.95;;
78670;SDS011;68277;52.724;6.516;2023-04-15T14:59:30;7.70;;;3.00;;
78670;SDS011;68277;52.724;6.516;2023-04-15T15:01:57;7.63;;;1.80;;
78670;SDS011;68277;52.724;6.516;2023-04-15T15:06:48;1.60;;;1.05;;
78670;SDS011;68277;52.724;6.516;2023-04-15T15:09:14;2.65;;;1.52;;
78670;SDS011;68277;52.724;6.516;2023-04-15T15:11:39;2.50;;;1.77;;
78670;SDS011;68277;52.724;6.516;2023-04-15T15:14:05;2.72;;;1.55;;
78670;SDS011;68277;52.724;6.516;2023-04-15T15:16:32;8.40;;;2.50;;